createdAt,value
2019-04-26T00:01:00.647Z,18.70
2019-04-26T00:03:06.505Z,18.70
2019-04-26T00:05:11.099Z,18.70
2019-04-26T00:07:16.608Z,18.70
2019-04-26T00:09:34.296Z,18.70
2019-04-26T00:11:46.019Z,18.60
2019-04-26T00:14:07.766Z,18.60
2019-04-26T00:16:26.108Z,18.60
2019-04-26T00:18:29.936Z,18.60
2019-04-26T00:20:34.277Z,18.70
2019-04-26T00:22:38.287Z,18.70
2019-04-26T00:24:42.268Z,18.50
2019-04-26T00:26:46.174Z,18.50
2019-04-26T00:28:50.107Z,18.40
2019-04-26T00:30:54.083Z,18.40
2019-04-26T00:32:58.199Z,18.40
2019-04-26T00:35:02.209Z,18.50
2019-04-26T00:37:06.216Z,18.50
2019-04-26T00:39:10.096Z,18.50
2019-04-26T00:41:14.402Z,18.40
2019-04-26T00:43:18.608Z,18.20
2019-04-26T00:45:23.623Z,18.10
2019-04-26T00:47:28.544Z,18.20
2019-04-26T00:49:43.451Z,18.20
2019-04-26T00:51:41.095Z,18.30
2019-04-26T00:53:47.040Z,18.20
2019-04-26T00:55:55.183Z,17.90
2019-04-26T00:57:59.394Z,17.60
2019-04-26T01:00:04.912Z,17.50
2019-04-26T01:02:18.622Z,17.60
2019-04-26T01:04:23.000Z,17.70
2019-04-26T01:06:29.322Z,18.00
2019-04-26T01:08:33.246Z,17.90
2019-04-26T01:10:37.120Z,17.90
2019-04-26T01:12:41.587Z,17.90
2019-04-26T01:14:45.487Z,17.80
2019-04-26T01:16:49.392Z,17.70
2019-04-26T01:18:54.375Z,17.70
2019-04-26T01:21:00.819Z,17.70
2019-04-26T01:23:07.250Z,17.70
2019-04-26T01:25:39.573Z,17.60
2019-04-26T01:27:43.526Z,17.70
2019-04-26T01:29:49.618Z,17.90
2019-04-26T01:32:07.719Z,17.90
2019-04-26T01:34:12.031Z,18.00
2019-04-26T01:36:18.240Z,18.00
2019-04-26T01:38:23.703Z,17.80
2019-04-26T01:40:29.322Z,17.60
2019-04-26T01:42:52.512Z,17.40
2019-04-26T01:45:05.965Z,17.40
2019-04-26T01:47:09.963Z,17.50
2019-04-26T01:49:15.535Z,17.70
2019-04-26T01:51:26.651Z,17.60
2019-04-26T01:53:30.779Z,17.60
2019-04-26T01:55:35.708Z,17.50
2019-04-26T01:57:41.199Z,17.30
2019-04-26T01:59:51.009Z,17.00
2019-04-26T02:02:21.277Z,17.00
2019-04-26T02:04:30.473Z,17.00
2019-04-26T02:06:35.314Z,17.00
2019-04-26T02:08:39.391Z,16.90
2019-04-26T02:10:43.462Z,16.90
2019-04-26T02:12:48.859Z,17.00
2019-04-26T02:14:52.873Z,17.10
2019-04-26T02:17:01.037Z,17.00
2019-04-26T02:19:05.695Z,16.90
2019-04-26T02:21:30.218Z,17.10
2019-04-26T02:23:43.392Z,17.20
2019-04-26T02:25:51.564Z,17.10
2019-04-26T02:27:55.568Z,17.10
2019-04-26T02:30:00.898Z,17.20
2019-04-26T02:32:07.822Z,17.20
2019-04-26T02:34:12.753Z,17.10
2019-04-26T02:36:16.924Z,17.20
2019-04-26T02:38:21.160Z,17.10
2019-04-26T02:40:26.112Z,17.00
2019-04-26T02:42:42.646Z,16.90
2019-04-26T02:44:56.519Z,16.80
2019-04-26T02:47:39.031Z,16.80
2019-04-26T02:49:47.278Z,16.80
2019-04-26T02:52:19.759Z,16.90
2019-04-26T02:54:47.886Z,16.70
2019-04-26T02:56:54.852Z,16.70
2019-04-26T02:59:37.731Z,17.00
2019-04-26T03:01:41.938Z,17.00
2019-04-26T03:03:46.206Z,16.80
2019-04-26T03:05:51.208Z,16.60
2019-04-26T03:08:03.072Z,16.60
2019-04-26T03:10:09.081Z,16.70
2019-04-26T03:12:17.192Z,16.70
2019-04-26T03:14:42.176Z,16.30
2019-04-26T03:16:59.533Z,16.20
2019-04-26T03:19:23.834Z,16.40
2019-04-26T03:21:56.859Z,16.60
2019-04-26T03:24:17.855Z,16.80
2019-04-26T03:26:47.087Z,16.80
2019-04-26T03:29:23.143Z,16.90
2019-04-26T03:31:53.568Z,16.80
2019-04-26T03:34:03.186Z,16.50
2019-04-26T03:36:28.487Z,16.40
2019-04-26T03:38:43.609Z,16.10
2019-04-26T03:40:59.640Z,15.90
2019-04-26T03:43:36.848Z,15.80
2019-04-26T03:45:53.514Z,15.70
2019-04-26T03:48:12.325Z,15.60
2019-04-26T03:50:26.379Z,15.80
2019-04-26T03:52:49.811Z,16.00
2019-04-26T03:54:57.788Z,16.20
2019-04-26T03:57:16.958Z,16.20
2019-04-26T03:59:38.319Z,16.10
2019-04-26T04:01:51.419Z,16.00
2019-04-26T04:03:59.813Z,16.00
2019-04-26T04:06:07.343Z,16.00
2019-04-26T04:08:16.752Z,16.10
2019-04-26T04:10:25.711Z,16.10
2019-04-26T04:13:43.292Z,16.10
2019-04-26T04:15:48.636Z,16.00
2019-04-26T04:18:01.520Z,16.00
2019-04-26T04:20:55.684Z,16.10
2019-04-26T04:23:39.806Z,16.10
2019-04-26T04:25:49.254Z,16.00
2019-04-26T04:28:12.747Z,16.20
2019-04-26T04:30:26.026Z,16.40
2019-04-26T04:32:41.893Z,16.20
2019-04-26T04:34:49.731Z,15.90
2019-04-26T04:36:56.773Z,15.80
2019-04-26T04:39:22.348Z,15.80
2019-04-26T04:41:43.007Z,16.10
2019-04-26T04:43:59.601Z,16.40
2019-04-26T04:46:57.331Z,16.50
2019-04-26T04:49:19.558Z,16.40
2019-04-26T04:51:57.658Z,16.30
2019-04-26T04:54:13.945Z,16.40
2019-04-26T04:56:52.656Z,16.60
2019-04-26T04:59:00.576Z,16.80
2019-04-26T05:01:50.379Z,16.60
2019-04-26T05:04:10.091Z,16.70
2019-04-26T05:06:47.044Z,16.90
2019-04-26T05:09:11.052Z,16.90
2019-04-26T05:11:32.392Z,16.70
2019-04-26T05:13:46.268Z,16.10
2019-04-26T05:16:28.759Z,15.90
2019-04-26T05:18:59.109Z,15.80
2019-04-26T05:21:43.114Z,16.20
2019-04-26T05:24:17.125Z,16.40
2019-04-26T05:27:03.715Z,16.30
2019-04-26T05:29:56.239Z,16.50
2019-04-26T05:32:12.540Z,16.60
2019-04-26T05:34:36.752Z,16.50
2019-04-26T05:37:04.494Z,16.50
2019-04-26T05:39:17.056Z,16.60
2019-04-26T05:41:49.569Z,16.50
2019-04-26T05:44:31.739Z,16.60
2019-04-26T05:47:28.363Z,16.70
2019-04-26T05:50:17.981Z,16.90
2019-04-26T05:53:07.837Z,16.80
2019-04-26T05:55:43.375Z,16.80
2019-04-26T05:58:24.920Z,16.90
2019-04-26T06:01:16.768Z,16.90
2019-04-26T06:04:10.453Z,17.10
2019-04-26T06:06:28.122Z,16.90
2019-04-26T06:09:01.624Z,16.60
2019-04-26T06:11:14.487Z,16.20
2019-04-26T06:13:49.135Z,16.10
2019-04-26T06:16:05.122Z,16.00
2019-04-26T06:18:33.039Z,15.90
2019-04-26T06:21:11.350Z,15.80
2019-04-26T06:23:29.603Z,15.90
2019-04-26T06:25:48.783Z,15.60
2019-04-26T06:28:02.735Z,15.60
2019-04-26T06:30:18.960Z,15.50
2019-04-26T06:32:56.583Z,15.70
2019-04-26T06:35:19.989Z,15.60
2019-04-26T06:37:33.920Z,15.60
2019-04-26T06:40:05.671Z,16.00
2019-04-26T06:42:27.183Z,15.90
2019-04-26T06:44:52.787Z,16.00
2019-04-26T06:47:19.802Z,16.10
2019-04-26T06:50:15.478Z,16.30
2019-04-26T06:52:23.043Z,16.40
2019-04-26T06:54:53.462Z,16.50
2019-04-26T06:57:27.285Z,16.40
2019-04-26T06:59:48.478Z,16.50
2019-04-26T07:02:00.981Z,16.60
2019-04-26T07:04:33.077Z,16.80
2019-04-26T07:06:44.297Z,16.90
2019-04-26T07:08:57.826Z,16.80
2019-04-26T07:11:25.340Z,16.60
2019-04-26T07:13:52.054Z,16.40
2019-04-26T07:16:19.753Z,16.50
2019-04-26T07:18:26.979Z,16.50
2019-04-26T07:20:53.334Z,16.60
2019-04-26T07:23:44.092Z,16.60
2019-04-26T07:26:41.599Z,16.40
2019-04-26T07:29:29.642Z,16.40
2019-04-26T07:31:52.376Z,16.40
2019-04-26T07:34:27.743Z,16.40
2019-04-26T07:37:31.096Z,16.20
2019-04-26T07:40:13.842Z,16.10
2019-04-26T07:43:03.240Z,15.90
2019-04-26T07:45:37.835Z,16.00
2019-04-26T07:48:18.413Z,16.20
2019-04-26T07:50:49.487Z,16.30
2019-04-26T07:53:29.810Z,16.30
2019-04-26T07:55:49.543Z,16.30
2019-04-26T07:58:22.303Z,16.20
2019-04-26T08:00:53.192Z,16.10
2019-04-26T08:03:10.830Z,16.20
2019-04-26T08:05:22.760Z,16.20
2019-04-26T08:07:30.392Z,16.10
2019-04-26T08:09:37.388Z,16.30
2019-04-26T08:11:52.747Z,16.30
2019-04-26T08:14:13.226Z,16.20
2019-04-26T08:16:29.595Z,16.40
2019-04-26T08:18:47.822Z,16.30
2019-04-26T08:21:16.944Z,16.10
2019-04-26T08:23:39.594Z,16.10
2019-04-26T08:25:36.987Z,16.30
2019-04-26T08:27:42.855Z,16.50
2019-04-26T08:29:50.484Z,16.30
2019-04-26T08:31:58.830Z,16.30
2019-04-26T08:34:08.704Z,16.40
2019-04-26T08:36:16.250Z,16.30
2019-04-26T08:38:22.835Z,16.50
2019-04-26T08:40:36.800Z,16.30
2019-04-26T08:42:49.663Z,16.30
2019-04-26T08:45:10.358Z,16.50
2019-04-26T08:47:24.367Z,16.60
2019-04-26T08:49:35.046Z,16.70
2019-04-26T08:51:42.494Z,16.70
2019-04-26T08:53:49.641Z,16.40
2019-04-26T08:55:56.682Z,16.50
2019-04-26T08:58:05.769Z,16.60
2019-04-26T09:00:23.747Z,16.30
2019-04-26T09:02:52.999Z,16.40
2019-04-26T09:05:12.652Z,16.40
2019-04-26T09:07:22.284Z,16.40
2019-04-26T09:09:29.502Z,16.50
2019-04-26T09:11:35.526Z,16.50
2019-04-26T09:13:43.538Z,16.40
2019-04-26T09:16:25.631Z,16.30
2019-04-26T09:18:42.032Z,16.40
2019-04-26T09:20:38.568Z,16.20
2019-04-26T09:23:12.261Z,16.10
2019-04-26T09:25:30.288Z,16.10
2019-04-26T09:27:51.621Z,16.00
2019-04-26T09:30:09.328Z,15.80
2019-04-26T09:32:18.869Z,15.80
2019-04-26T09:34:23.108Z,15.40
2019-04-26T09:36:27.059Z,15.60
2019-04-26T09:38:30.894Z,15.70
2019-04-26T09:40:34.875Z,15.80
2019-04-26T09:42:51.108Z,15.80
2019-04-26T09:45:22.584Z,16.00
2019-04-26T09:47:30.896Z,16.30
2019-04-26T09:49:41.156Z,16.40
2019-04-26T09:51:45.238Z,16.30
2019-04-26T09:53:50.804Z,16.20
2019-04-26T09:55:55.182Z,16.10
2019-04-26T09:57:59.439Z,16.30
2019-04-26T10:00:10.367Z,16.30
2019-04-26T10:02:13.241Z,16.10
2019-04-26T10:04:17.576Z,16.30
2019-04-26T10:06:21.567Z,16.40
2019-04-26T10:08:25.646Z,16.40
2019-04-26T10:10:35.302Z,16.50
2019-04-26T10:13:08.908Z,16.80
2019-04-26T10:15:26.817Z,17.00
2019-04-26T10:17:36.796Z,16.70
2019-04-26T10:19:48.359Z,16.40
2019-04-26T10:21:53.304Z,16.50
2019-04-26T10:23:57.186Z,16.50
2019-04-26T10:26:01.212Z,16.40
2019-04-26T10:28:05.420Z,16.50
2019-04-26T10:30:11.565Z,16.50
2019-04-26T10:32:16.031Z,16.70
2019-04-26T10:34:20.212Z,16.40
2019-04-26T10:36:30.006Z,16.20
2019-04-26T10:38:33.346Z,16.30
2019-04-26T10:40:40.044Z,16.10
2019-04-26T10:42:43.875Z,16.30
2019-04-26T10:44:47.786Z,16.40
2019-04-26T10:46:55.633Z,16.40
2019-04-26T10:49:08.217Z,16.40
2019-04-26T10:51:06.997Z,16.60
2019-04-26T10:53:35.392Z,16.70
2019-04-26T10:56:04.394Z,16.70
2019-04-26T10:58:22.659Z,16.70
2019-04-26T11:00:32.696Z,16.70
2019-04-26T11:02:37.471Z,16.40
2019-04-26T11:04:42.932Z,16.30
2019-04-26T11:06:47.100Z,16.10
2019-04-26T11:08:51.008Z,16.00
2019-04-26T11:10:55.358Z,16.00
2019-04-26T11:13:00.190Z,16.20
2019-04-26T11:15:06.263Z,16.30
2019-04-26T11:17:16.034Z,16.30
2019-04-26T11:19:17.772Z,16.00
2019-04-26T11:21:26.620Z,16.20
2019-04-26T11:23:30.454Z,16.30
2019-04-26T11:25:34.723Z,16.30
2019-04-26T11:27:40.210Z,16.30
2019-04-26T11:29:53.582Z,16.60
2019-04-26T11:31:50.668Z,16.50
2019-04-26T11:34:04.699Z,16.50
2019-04-26T11:36:03.329Z,16.30
2019-04-26T11:38:07.223Z,16.20
2019-04-26T11:40:14.664Z,16.30
2019-04-26T11:42:18.712Z,16.30
2019-04-26T11:44:27.529Z,16.40
2019-04-26T11:46:30.528Z,16.40
2019-04-26T11:48:34.728Z,16.40
2019-04-26T11:50:38.983Z,16.50
2019-04-26T11:52:42.949Z,16.60
2019-04-26T11:54:46.892Z,16.80
2019-04-26T11:56:51.343Z,17.70
2019-04-26T11:58:56.900Z,18.20
2019-04-26T12:01:03.324Z,18.30
2019-04-26T12:03:07.280Z,17.90
2019-04-26T12:05:33.362Z,17.50
2019-04-26T12:07:42.848Z,17.00
2019-04-26T12:09:48.013Z,16.90
2019-04-26T12:12:04.044Z,16.70
2019-04-26T12:14:00.351Z,16.50
2019-04-26T12:16:04.667Z,16.60
2019-04-26T12:18:09.648Z,16.60
2019-04-26T12:20:14.416Z,16.50
2019-04-26T12:22:18.491Z,16.60
2019-04-26T12:24:25.404Z,17.10
2019-04-26T12:26:28.310Z,17.80
2019-04-26T12:28:32.304Z,18.30
2019-04-26T12:30:36.199Z,18.00
2019-04-26T12:32:40.145Z,17.80
2019-04-26T12:34:44.022Z,18.40
2019-04-26T12:36:48.232Z,18.50
2019-04-26T12:38:52.140Z,18.40
2019-04-26T12:40:56.375Z,19.00
2019-04-26T12:43:00.488Z,19.30
2019-04-26T12:45:16.652Z,20.00
2019-04-26T12:47:26.436Z,18.50
2019-04-26T12:49:30.528Z,17.90
2019-04-26T12:51:35.029Z,17.50
2019-04-26T12:53:40.711Z,17.00
2019-04-26T12:55:44.677Z,16.90
2019-04-26T12:57:48.636Z,17.10
2019-04-26T12:59:52.589Z,16.90
2019-04-26T13:02:05.404Z,16.80
2019-04-26T13:04:06.073Z,16.80
2019-04-26T13:06:10.269Z,16.70
2019-04-26T13:08:16.898Z,16.70
2019-04-26T13:10:45.002Z,16.70
2019-04-26T13:12:58.269Z,16.70
2019-04-26T13:15:55.989Z,16.50
2019-04-26T13:18:00.272Z,16.60
2019-04-26T13:20:04.943Z,16.50
2019-04-26T13:22:12.479Z,16.50
2019-04-26T13:24:14.857Z,16.60
2019-04-26T13:26:18.840Z,16.50
2019-04-26T13:28:22.799Z,16.70
2019-04-26T13:30:32.754Z,16.90
2019-04-26T13:32:32.439Z,17.50
2019-04-26T13:34:37.213Z,17.80
2019-04-26T13:36:42.482Z,17.60
2019-04-26T13:38:46.459Z,17.70
2019-04-26T13:40:50.838Z,17.00
2019-04-26T13:42:54.728Z,16.80
2019-04-26T13:45:20.860Z,16.70
2019-04-26T13:47:41.397Z,16.70
2019-04-26T13:49:54.515Z,16.30
2019-04-26T13:51:58.735Z,16.20
2019-04-26T13:54:02.668Z,16.40
2019-04-26T13:56:06.823Z,16.40
2019-04-26T13:58:10.712Z,16.30
2019-04-26T14:00:22.113Z,16.10
2019-04-26T14:02:26.132Z,15.90
2019-04-26T14:04:29.998Z,15.80
2019-04-26T14:06:33.907Z,16.00
2019-04-26T14:08:37.878Z,16.20
2019-04-26T14:10:41.763Z,16.20
2019-04-26T14:12:46.169Z,16.10
2019-04-26T14:14:51.464Z,16.10
2019-04-26T14:16:55.775Z,16.50
2019-04-26T14:19:01.099Z,16.80
2019-04-26T14:21:05.056Z,17.00
2019-04-26T14:23:27.995Z,16.90
2019-04-26T14:25:42.992Z,16.70
2019-04-26T14:27:49.950Z,16.30
2019-04-26T14:29:54.520Z,16.40
2019-04-26T14:31:58.723Z,16.80
2019-04-26T14:34:05.403Z,16.50
2019-04-26T14:36:17.609Z,16.40
2019-04-26T14:38:27.082Z,16.10
2019-04-26T14:40:21.355Z,16.60
2019-04-26T14:42:33.574Z,17.00
2019-04-26T14:44:34.746Z,17.30
2019-04-26T14:46:48.578Z,17.50
2019-04-26T14:49:00.641Z,18.10
2019-04-26T14:50:53.304Z,18.00
2019-04-26T14:52:58.234Z,18.00
2019-04-26T14:55:02.762Z,18.30
2019-04-26T14:57:10.337Z,17.50
2019-04-26T14:59:12.449Z,16.80
2019-04-26T15:01:35.289Z,16.40
2019-04-26T15:03:58.531Z,16.40
2019-04-26T15:06:22.242Z,16.60
2019-04-26T15:08:26.900Z,16.30
2019-04-26T15:10:45.760Z,16.70
2019-04-26T15:12:46.921Z,17.10
2019-04-26T15:14:49.343Z,17.20
2019-04-26T15:16:54.958Z,16.80
2019-04-26T15:18:59.508Z,16.90
2019-04-26T15:21:04.536Z,17.20
2019-04-26T15:23:08.838Z,16.90
2019-04-26T15:25:13.180Z,16.90
2019-04-26T15:27:17.227Z,16.90
2019-04-26T15:29:26.752Z,16.60
2019-04-26T15:31:27.240Z,16.90
2019-04-26T15:33:32.527Z,16.90
2019-04-26T15:35:37.161Z,16.70
2019-04-26T15:37:42.280Z,16.10
2019-04-26T15:39:58.314Z,16.20
2019-04-26T15:42:23.788Z,15.40
2019-04-26T15:45:01.666Z,15.20
2019-04-26T15:47:28.476Z,15.20
2019-04-26T15:49:46.977Z,14.80
2019-04-26T15:51:51.559Z,14.90
2019-04-26T15:53:55.675Z,14.80
2019-04-26T15:56:00.083Z,14.80
2019-04-26T15:58:08.539Z,14.50
2019-04-26T16:00:10.291Z,14.30
2019-04-26T16:02:14.480Z,14.10
2019-04-26T16:04:18.605Z,14.20
2019-04-26T16:06:23.680Z,14.10
2019-04-26T16:08:28.129Z,14.00
2019-04-26T16:10:38.286Z,13.90
2019-04-26T16:12:42.252Z,14.00
2019-04-26T16:14:46.551Z,14.00
2019-04-26T16:16:52.364Z,14.20
2019-04-26T16:18:57.248Z,14.10
2019-04-26T16:21:01.980Z,14.00
2019-04-26T16:23:07.519Z,14.10
2019-04-26T16:25:12.173Z,14.10
2019-04-26T16:27:16.209Z,14.00
2019-04-26T16:29:39.835Z,14.00
2019-04-26T16:32:02.907Z,14.00
2019-04-26T16:34:10.800Z,13.90
2019-04-26T16:36:15.999Z,14.00
2019-04-26T16:38:36.139Z,13.90
2019-04-26T16:40:47.556Z,13.90
2019-04-26T16:42:49.855Z,13.90
2019-04-26T16:44:53.158Z,14.00
2019-04-26T16:47:01.714Z,14.00
2019-04-26T16:49:05.877Z,13.80
2019-04-26T16:51:10.914Z,13.70
2019-04-26T16:53:42.582Z,13.60
2019-04-26T16:55:24.723Z,13.60
2019-04-26T16:57:28.536Z,13.60
2019-04-26T16:59:32.937Z,13.60
2019-04-26T17:01:38.108Z,13.70
2019-04-26T17:03:45.213Z,13.90
2019-04-26T17:05:51.997Z,13.80
2019-04-26T17:07:58.812Z,13.50
2019-04-26T17:10:00.136Z,13.40
2019-04-26T17:12:04.595Z,13.40
2019-04-26T17:14:10.317Z,13.50
2019-04-26T17:16:14.228Z,13.40
2019-04-26T17:18:19.411Z,13.40
2019-04-26T17:20:23.876Z,13.50
2019-04-26T17:22:44.369Z,13.40
2019-04-26T17:24:53.466Z,13.20
2019-04-26T17:27:05.328Z,13.20
2019-04-26T17:29:08.529Z,13.00
2019-04-26T17:31:12.582Z,13.20
2019-04-26T17:33:16.515Z,13.20
2019-04-26T17:35:20.745Z,13.00
2019-04-26T17:37:26.482Z,12.90
2019-04-26T17:39:30.445Z,12.90
2019-04-26T17:41:34.709Z,12.90
2019-04-26T17:43:42.273Z,12.90
2019-04-26T17:45:44.326Z,12.80
2019-04-26T17:47:48.379Z,12.80
2019-04-26T17:49:52.532Z,12.70
2019-04-26T17:51:57.999Z,12.60
2019-04-26T17:54:21.298Z,12.60
2019-04-26T17:56:08.132Z,12.50
2019-04-26T17:58:17.197Z,12.50
2019-04-26T18:00:26.724Z,12.40
2019-04-26T18:02:41.218Z,12.40
2019-04-26T18:04:36.890Z,12.40
2019-04-26T18:06:38.076Z,12.40
2019-04-26T18:08:51.732Z,12.40
2019-04-26T18:10:47.798Z,12.30
2019-04-26T18:12:52.399Z,12.30
2019-04-26T18:14:56.315Z,12.30
2019-04-26T18:17:10.208Z,12.30
2019-04-26T18:19:30.540Z,12.30
2019-04-26T18:21:56.110Z,12.40
2019-04-26T18:23:58.811Z,12.30
2019-04-26T18:26:03.286Z,12.30
2019-04-26T18:28:08.706Z,12.30
2019-04-26T18:30:14.333Z,12.40
2019-04-26T18:32:18.907Z,12.20
2019-04-26T18:34:25.933Z,12.00
2019-04-26T18:36:32.009Z,12.00
2019-04-26T18:38:35.635Z,12.10
2019-04-26T18:40:57.208Z,12.00
2019-04-26T18:42:45.570Z,12.30
2019-04-26T18:44:49.484Z,12.10
2019-04-26T18:46:58.759Z,11.90
2019-04-26T18:49:04.358Z,12.00
2019-04-26T18:51:11.203Z,12.00
2019-04-26T18:53:36.729Z,11.80
2019-04-26T18:55:37.904Z,11.70
2019-04-26T18:57:43.046Z,11.70
2019-04-26T18:59:51.379Z,11.70
2019-04-26T19:01:53.537Z,11.60
2019-04-26T19:04:00.607Z,11.60
2019-04-26T19:06:05.568Z,11.80
2019-04-26T19:08:09.950Z,11.60
2019-04-26T19:10:14.917Z,11.60
2019-04-26T19:12:23.401Z,11.50
2019-04-26T19:14:48.560Z,11.60
2019-04-26T19:17:02.036Z,11.60
2019-04-26T19:19:15.365Z,11.60
2019-04-26T19:21:24.763Z,11.60
2019-04-26T19:23:30.002Z,11.60
2019-04-26T19:25:38.679Z,11.70
2019-04-26T19:27:48.213Z,11.60
2019-04-26T19:29:46.781Z,11.60
2019-04-26T19:31:56.527Z,11.60
2019-04-26T19:34:02.724Z,11.60
2019-04-26T19:36:07.649Z,11.60
2019-04-26T19:38:14.643Z,11.60
2019-04-26T19:40:17.625Z,11.80
2019-04-26T19:42:21.980Z,11.70
2019-04-26T19:44:26.053Z,11.60
2019-04-26T19:47:02.452Z,11.50
2019-04-26T19:49:41.772Z,11.60
2019-04-26T19:52:09.716Z,11.60
2019-04-26T19:54:21.482Z,11.70
2019-04-26T19:56:37.007Z,11.80
2019-04-26T19:58:42.118Z,11.70
2019-04-26T20:00:46.885Z,11.70
2019-04-26T20:02:52.362Z,11.60
2019-04-26T20:04:56.671Z,11.60
2019-04-26T20:07:01.936Z,11.60
2019-04-26T20:09:07.275Z,11.70
2019-04-26T20:11:12.861Z,11.60
2019-04-26T20:13:17.258Z,11.60
2019-04-26T20:15:27.963Z,11.70
2019-04-26T20:17:27.234Z,11.80
2019-04-26T20:19:37.073Z,11.80
2019-04-26T20:21:37.333Z,11.70
2019-04-26T20:23:47.057Z,11.70
2019-04-26T20:25:48.621Z,11.70
2019-04-26T20:27:53.694Z,11.80
2019-04-26T20:29:58.890Z,11.70
2019-04-26T20:32:21.151Z,11.70
2019-04-26T20:34:25.292Z,11.70
2019-04-26T20:36:33.723Z,11.60
2019-04-26T20:38:43.784Z,11.60
2019-04-26T20:40:43.558Z,11.60
2019-04-26T20:42:47.899Z,11.60
2019-04-26T20:44:53.769Z,11.60
2019-04-26T20:46:57.998Z,11.60
2019-04-26T20:49:07.905Z,11.80
2019-04-26T20:51:10.844Z,11.70
2019-04-26T20:53:16.144Z,11.50
2019-04-26T20:55:25.261Z,11.40
2019-04-26T20:57:30.660Z,11.30
2019-04-26T20:59:32.139Z,11.30
2019-04-26T21:01:36.533Z,11.20
2019-04-26T21:03:42.853Z,11.20
2019-04-26T21:05:50.476Z,11.00
2019-04-26T21:07:52.502Z,11.10
2019-04-26T21:09:56.851Z,11.00
2019-04-26T21:12:01.883Z,11.00
2019-04-26T21:14:07.635Z,11.00
2019-04-26T21:16:15.359Z,11.00
2019-04-26T21:18:17.755Z,11.20
2019-04-26T21:20:27.644Z,10.90
2019-04-26T21:22:28.876Z,10.90
2019-04-26T21:24:36.830Z,11.10
2019-04-26T21:27:06.214Z,11.20
2019-04-26T21:29:34.491Z,11.60
2019-04-26T21:31:47.155Z,11.90
2019-04-26T21:34:16.545Z,11.50
2019-04-26T21:36:34.691Z,11.20
2019-04-26T21:38:43.945Z,11.20
2019-04-26T21:40:55.379Z,10.90
2019-04-26T21:42:59.505Z,11.00
2019-04-26T21:45:05.726Z,10.90
2019-04-26T21:47:09.785Z,10.90
2019-04-26T21:49:20.615Z,10.90
2019-04-26T21:51:19.543Z,11.00
2019-04-26T21:53:23.974Z,10.90
2019-04-26T21:55:35.266Z,11.00
2019-04-26T21:57:35.026Z,10.90
2019-04-26T21:59:42.176Z,10.90
2019-04-26T22:01:48.175Z,10.90
2019-04-26T22:03:55.491Z,10.80
2019-04-26T22:05:57.047Z,10.70
2019-04-26T22:08:01.232Z,10.60
2019-04-26T22:10:24.525Z,10.80
2019-04-26T22:12:31.242Z,10.80
2019-04-26T22:14:34.900Z,10.90
2019-04-26T22:16:57.466Z,10.60
2019-04-26T22:19:23.567Z,10.60
2019-04-26T22:21:36.048Z,10.50
2019-04-26T22:23:47.580Z,10.70
2019-04-26T22:25:54.048Z,10.60
2019-04-26T22:28:00.461Z,10.80
2019-04-26T22:30:07.110Z,11.10
2019-04-26T22:32:15.062Z,11.30
2019-04-26T22:34:17.144Z,11.50
2019-04-26T22:36:21.215Z,11.60
2019-04-26T22:38:26.837Z,11.20
2019-04-26T22:40:31.103Z,11.20
2019-04-26T22:42:41.510Z,11.00
2019-04-26T22:44:51.728Z,10.80
2019-04-26T22:47:14.064Z,10.70
2019-04-26T22:49:18.423Z,11.00
2019-04-26T22:51:23.146Z,11.30
2019-04-26T22:53:27.522Z,11.40
2019-04-26T22:55:33.303Z,11.10
2019-04-26T22:57:37.243Z,10.80
2019-04-26T22:59:43.255Z,10.80
2019-04-26T23:01:48.743Z,10.80
2019-04-26T23:03:53.234Z,10.70
2019-04-26T23:05:57.597Z,10.80
2019-04-26T23:08:03.208Z,10.80
2019-04-26T23:10:08.933Z,10.80
2019-04-26T23:12:29.291Z,10.80
2019-04-26T23:14:55.458Z,11.00
2019-04-26T23:17:17.239Z,11.20
2019-04-26T23:19:35.995Z,11.00
2019-04-26T23:21:45.468Z,10.80
2019-04-26T23:23:48.511Z,10.80
2019-04-26T23:25:52.513Z,10.80
2019-04-26T23:27:58.264Z,10.70
2019-04-26T23:30:03.768Z,10.70
2019-04-26T23:32:12.141Z,10.70
2019-04-26T23:34:14.249Z,10.70
2019-04-26T23:36:19.602Z,10.70
2019-04-26T23:38:23.851Z,10.70
2019-04-26T23:40:29.009Z,10.70
2019-04-26T23:42:33.187Z,10.70
2019-04-26T23:44:40.148Z,10.80
2019-04-26T23:46:44.375Z,10.80
2019-04-26T23:48:49.680Z,10.70
2019-04-26T23:50:53.943Z,10.70
2019-04-26T23:52:57.869Z,10.90
2019-04-26T23:55:07.225Z,10.80
2019-04-26T23:57:07.443Z,10.70
2019-04-26T23:59:16.498Z,10.70
